Time;durP1;ratioP1;P1;durP2;ratioP2;P2;SDS_P1;SDS_P2;PMS_P1;PMS_P2;Temp;Humidity;BMP_temperature;BMP_pressure;BME280_temperature;BME280_humidity;BME280_pressure;Samples;Min_cycle;Max_cycle;Signal;HPM_P1;HPM_P2
2022/07/03 00:01:49;;;;;;;0.80;0.32;;;;;;;16.95;43.25;101747.31;4980613;28;20516;-77
2022/07/03 00:04:15;;;;;;;1.88;0.70;;;;;;;16.83;43.42;101748.81;4996142;28;20045;-78
2022/07/03 00:06:40;;;;;;;0.82;0.40;;;;;;;16.77;43.87;101741.22;5000587;28;20155;-78
2022/07/03 00:09:06;;;;;;;4.07;1.10;;;;;;;16.80;43.75;101734.91;4997335;28;20117;-78
2022/07/03 00:11:32;;;;;;;1.80;0.43;;;;;;;16.91;43.52;101734.34;4984808;28;20189;-78
2022/07/03 00:13:58;;;;;;;2.33;0.70;;;;;;;16.86;43.31;101739.88;4978845;28;20054;-76
2022/07/03 00:16:24;;;;;;;1.58;0.60;;;;;;;16.85;43.53;101735.56;5014794;28;20080;-78
2022/07/03 00:18:50;;;;;;;1.60;1.00;;;;;;;16.91;43.44;101737.00;4973683;28;20092;-76
2022/07/03 00:21:43;;;;;;;3.83;0.88;;;;;;;16.96;43.51;101735.00;5001779;28;20498;-81
2022/07/03 00:24:31;;;;;;;2.53;0.80;;;;;;;16.98;43.27;101728.69;4996167;28;20508;-78
2022/07/03 00:26:58;;;;;;;0.80;0.50;;;;;;;17.07;43.08;101731.75;4956087;28;20049;-77
2022/07/03 00:29:29;;;;;;;3.10;0.60;;;;;;;17.02;43.29;101719.66;4969542;28;20041;-79
2022/07/03 00:31:55;;;;;;;6.20;0.73;;;;;;;16.92;43.53;101718.44;4995605;28;20042;-80
2022/07/03 00:34:25;;;;;;;1.20;0.68;;;;;;;16.78;43.62;101713.06;4997362;28;20540;-78
2022/07/03 00:36:52;;;;;;;1.92;0.60;;;;;;;16.77;43.71;101712.19;4996476;28;20068;-77
2022/07/03 00:39:18;;;;;;;2.17;0.80;;;;;;;16.71;43.70;101703.72;4995951;28;20041;-79
2022/07/03 00:41:47;;;;;;;2.92;0.70;;;;;;;16.74;43.69;101701.75;4994586;28;20448;-78
2022/07/03 00:44:13;;;;;;;3.08;0.82;;;;;;;16.71;43.84;101707.22;4981168;28;20103;-79
2022/07/03 00:46:40;;;;;;;2.20;0.65;;;;;;;16.71;43.86;101704.59;4996368;28;20029;-79
2022/07/03 00:49:08;;;;;;;1.52;0.52;;;;;;;16.71;43.84;101695.78;4969853;28;20048;-76
2022/07/03 00:51:37;;;;;;;1.38;0.63;;;;;;;16.73;43.82;101694.78;4996607;28;20061;-80
2022/07/03 00:54:03;;;;;;;0.65;0.35;;;;;;;16.76;43.78;101696.44;4993386;28;20039;-80
2022/07/03 00:56:30;;;;;;;0.95;0.40;;;;;;;16.74;43.52;101691.22;4980621;28;20042;-78
2022/07/03 00:58:59;;;;;;;1.23;0.40;;;;;;;16.78;43.75;101689.31;4993412;28;20030;-79
2022/07/03 01:01:31;;;;;;;4.05;0.30;;;;;;;16.82;43.86;101686.41;4996187;28;20556;-80
2022/07/03 01:04:05;;;;;;;2.70;0.40;;;;;;;16.75;43.96;101666.53;4973827;28;20157;-78
2022/07/03 01:06:37;;;;;;;2.00;0.50;;;;;;;16.71;43.91;101672.91;5002837;28;20595;-79
2022/07/03 01:09:04;;;;;;;;;;;;;;;16.69;43.91;101664.22;5001061;28;20057;-79
2022/07/03 01:12:06;;;;;;;1.50;0.70;;;;;;;16.61;44.16;101667.25;5001508;28;19917;-76
2022/07/03 01:14:58;;;;;;;1.52;0.80;;;;;;;16.56;44.01;101664.00;4957898;28;20076;-76
2022/07/03 01:17:37;;;;;;;3.80;0.75;;;;;;;16.59;44.42;101668.25;5000974;28;20217;-79
2022/07/03 01:20:04;;;;;;;3.08;0.73;;;;;;;16.55;44.24;101666.72;4997926;28;20488;-78
2022/07/03 01:22:32;;;;;;;0.93;0.43;;;;;;;16.58;44.45;101671.84;4970604;28;20061;-77
2022/07/03 01:25:21;;;;;;;1.38;0.60;;;;;;;16.63;44.27;101669.81;4989268;28;20048;-79
2022/07/03 01:28:08;;;;;;;1.52;1.15;;;;;;;16.71;44.12;101667.63;4999127;28;20037;-78
2022/07/03 01:30:38;;;;;;;3.50;0.70;;;;;;;16.72;44.28;101669.31;4983089;28;20034;-80
2022/07/03 01:33:09;;;;;;;3.70;1.15;;;;;;;16.71;44.34;101662.34;4998486;28;20046;-80
2022/07/03 01:35:56;;;;;;;2.88;1.10;;;;;;;16.76;44.21;101660.34;4995189;28;20515;-80
2022/07/03 01:38:21;;;;;;;2.25;0.70;;;;;;;16.71;44.21;101659.72;4981853;28;20065;-79
2022/07/03 01:40:49;;;;;;;4.80;0.90;;;;;;;16.65;44.51;101657.38;4997916;28;20057;-78
2022/07/03 01:43:18;;;;;;;1.00;0.60;;;;;;;16.61;44.27;101654.06;4980055;28;20038;-80
2022/07/03 01:45:50;;;;;;;1.13;0.75;;;;;;;16.53;44.43;101658.03;4998651;28;20108;-77
2022/07/03 01:48:17;;;;;;;4.30;0.77;;;;;;;16.48;45.00;101657.44;5000152;28;20323;-79
2022/07/03 01:50:46;;;;;;;2.67;0.77;;;;;;;16.54;44.70;101654.47;5012877;28;20048;-80
2022/07/03 01:53:13;;;;;;;2.65;0.65;;;;;;;16.59;44.78;101660.34;4995616;28;20124;-80
2022/07/03 01:55:41;;;;;;;1.08;0.40;;;;;;;16.61;44.66;101655.84;4997989;28;20236;-79
2022/07/03 01:58:07;;;;;;;1.02;0.50;;;;;;;16.53;45.04;101644.84;4995356;28;20771;-78
2022/07/03 02:00:43;;;;;;;1.45;0.65;;;;;;;16.52;45.17;101648.41;4984169;28;20034;-80
2022/07/03 02:03:09;;;;;;;0.80;0.45;;;;;;;16.65;44.88;101638.06;4995665;28;20046;-80
2022/07/03 02:05:41;;;;;;;1.50;0.30;;;;;;;16.70;44.82;101638.66;5012048;28;20753;-81
2022/07/03 02:08:31;;;;;;;1.90;0.55;;;;;;;16.78;44.79;101637.34;5012491;28;20054;-80
2022/07/03 02:11:18;;;;;;;3.55;0.40;;;;;;;16.78;44.89;101642.63;4992649;28;20053;-80
2022/07/03 02:14:12;;;;;;;1.75;0.45;;;;;;;16.63;44.98;101639.00;4975802;28;20049;-77
2022/07/03 02:17:24;;;;;;;1.10;0.63;;;;;;;16.35;45.71;101650.16;4999009;28;20030;-77
2022/07/03 02:19:58;;;;;;;1.80;0.50;;;;;;;16.24;46.45;101634.03;4976607;28;20431;-79
2022/07/03 02:22:51;;;;;;;2.95;0.80;;;;;;;16.25;46.33;101632.25;4983821;28;20034;-78
2022/07/03 02:25:25;;;;;;;1.48;0.50;;;;;;;16.29;46.18;101634.66;4981314;28;20031;-78
2022/07/03 02:28:09;;;;;;;1.02;0.43;;;;;;;16.41;45.93;101627.88;4994402;28;20391;-79
2022/07/03 02:30:38;;;;;;;2.57;0.73;;;;;;;16.41;45.91;101627.88;4999409;28;20057;-79
2022/07/03 02:33:06;;;;;;;1.13;0.65;;;;;;;16.30;46.37;101619.66;4997246;28;20311;-80
2022/07/03 02:35:34;;;;;;;1.65;1.30;;;;;;;16.14;46.40;101624.91;4997028;28;20034;-78
2022/07/03 02:38:09;;;;;;;1.00;0.77;;;;;;;15.97;46.77;101629.22;5012263;28;20429;-77
2022/07/03 02:40:43;;;;;;;2.00;1.23;;;;;;;15.92;46.96;101630.38;5015210;28;20036;-78
2022/07/03 02:43:27;;;;;;;1.85;1.10;;;;;;;15.68;47.50;101628.03;4996550;28;20049;-79
2022/07/03 02:46:48;;;;;;;1.95;0.90;;;;;;;15.67;47.26;101628.13;4994767;28;20497;-79
2022/07/03 02:48:59;;;;;;;1.70;0.93;;;;;;;15.54;47.84;101630.50;4992959;28;20480;-81
2022/07/03 02:51:40;;;;;;;2.53;1.20;;;;;;;15.40;48.06;101632.97;5000955;28;20073;-78
2022/07/03 02:54:13;;;;;;;4.20;1.05;;;;;;;15.24;48.48;101627.56;4995397;28;20080;-80
2022/07/03 02:57:05;;;;;;;2.90;1.13;;;;;;;15.21;48.48;101628.53;4979863;28;20125;-78
2022/07/03 02:59:44;;;;;;;1.48;1.00;;;;;;;15.20;48.71;101639.16;5013775;28;20053;-79
2022/07/03 03:02:46;;;;;;;1.83;1.05;;;;;;;15.24;48.28;101636.34;4979566;28;20633;-79
2022/07/03 03:05:24;;;;;;;1.45;0.70;;;;;;;15.03;48.63;101635.53;5012508;28;20112;-78
2022/07/03 03:08:19;;;;;;;1.80;1.13;;;;;;;14.86;49.39;101632.84;5006728;28;20176;-79
2022/07/03 03:10:47;;;;;;;1.67;1.00;;;;;;;14.82;49.34;101636.53;5012204;28;20021;-80
2022/07/03 03:13:19;;;;;;;2.10;0.70;;;;;;;14.86;49.38;101631.06;4964897;28;20058;-79
2022/07/03 03:16:03;;;;;;;;;;;;;;;14.88;49.46;101638.88;5008384;28;20041;-80
2022/07/03 03:18:29;;;;;;;4.13;0.93;;;;;;;14.81;49.59;101630.41;5009047;28;19917;-78
2022/07/03 03:20:59;;;;;;;2.33;1.13;;;;;;;14.68;49.99;101627.50;4996957;28;20098;-78
2022/07/03 03:23:45;;;;;;;3.60;1.15;;;;;;;14.50;50.36;101626.56;4996862;28;20583;-76
2022/07/03 03:26:11;;;;;;;6.78;1.50;;;;;;;14.35;50.55;101628.03;4998673;28;20038;-79
2022/07/03 03:28:38;;;;;;;3.47;1.30;;;;;;;14.26;51.08;101628.44;5009953;28;20054;-79
2022/07/03 03:31:08;;;;;;;2.65;1.52;;;;;;;14.23;51.31;101623.34;4993921;28;20030;-75
2022/07/03 03:33:38;;;;;;;5.40;1.42;;;;;;;14.40;50.79;101622.59;4995056;28;20762;-78
2022/07/03 03:36:06;;;;;;;3.20;1.65;;;;;;;14.51;50.32;101624.78;4979907;28;20123;-79
2022/07/03 03:38:31;;;;;;;1.63;1.13;;;;;;;14.51;50.52;101627.41;4996488;28;20053;-79
2022/07/03 03:40:57;;;;;;;1.52;1.02;;;;;;;14.54;50.44;101625.50;4986294;28;20407;-81
2022/07/03 03:43:23;;;;;;;2.00;1.15;;;;;;;14.51;50.23;101632.66;4997799;28;20565;-82
2022/07/03 03:45:48;;;;;;;2.05;0.90;;;;;;;14.43;50.75;101619.84;4997516;28;20061;-79
2022/07/03 03:48:14;;;;;;;2.15;1.27;;;;;;;14.42;50.75;101617.31;4981479;28;20043;-80
2022/07/03 03:50:42;;;;;;;4.00;1.38;;;;;;;14.47;50.42;101615.31;5011337;28;20116;-80
2022/07/03 03:53:09;;;;;;;3.53;1.42;;;;;;;14.53;50.63;101620.31;4995960;28;20038;-80
2022/07/03 03:55:34;;;;;;;3.35;1.58;;;;;;;14.59;50.47;101614.78;4999837;28;20460;-78
2022/07/03 03:58:01;;;;;;;2.70;1.50;;;;;;;14.49;50.80;101610.84;4996195;28;20134;-80
2022/07/03 04:00:27;;;;;;;2.53;2.10;;;;;;;14.43;51.23;101613.72;4999924;28;20400;-77
2022/07/03 04:02:52;;;;;;;3.03;1.88;;;;;;;14.53;51.21;101617.66;4992594;28;20050;-79
2022/07/03 04:05:18;;;;;;;6.25;1.70;;;;;;;14.77;51.26;101613.06;4999533;28;20425;-78
2022/07/03 04:07:43;;;;;;;3.15;1.60;;;;;;;15.04;50.57;101605.66;4996122;28;20049;-77
2022/07/03 04:10:09;;;;;;;1.80;1.10;;;;;;;15.25;50.43;101598.53;4996507;28;21412;-78
2022/07/03 04:12:34;;;;;;;4.43;1.65;;;;;;;15.45;49.80;101599.34;4994786;28;20046;-78
2022/07/03 04:15:00;;;;;;;3.08;2.00;;;;;;;15.58;49.90;101603.94;4994708;28;20112;-77
2022/07/03 04:17:26;;;;;;;2.70;1.95;;;;;;;15.82;49.77;101602.78;4981247;28;20053;-78
2022/07/03 04:19:51;;;;;;;2.28;1.60;;;;;;;16.03;49.39;101599.09;4995807;28;20144;-78
2022/07/03 04:22:17;;;;;;;2.47;1.67;;;;;;;16.32;48.99;101602.81;4974137;28;20125;-77
2022/07/03 04:24:42;;;;;;;5.22;1.25;;;;;;;16.57;47.84;101602.38;4984375;28;20033;-79
2022/07/03 04:27:08;;;;;;;2.10;1.90;;;;;;;16.81;47.31;101600.22;4972560;28;20083;-78
2022/07/03 04:29:33;;;;;;;4.78;2.03;;;;;;;16.94;46.65;101604.84;4982322;28;20124;-79
2022/07/03 04:31:59;;;;;;;1.90;1.65;;;;;;;16.92;46.14;101604.06;4980188;28;20121;-78
2022/07/03 04:34:24;;;;;;;2.60;2.28;;;;;;;16.92;45.90;101591.69;4998847;28;20733;-79
2022/07/03 04:36:50;;;;;;;2.58;1.70;;;;;;;16.93;46.07;101597.84;4985528;28;20034;-79
2022/07/03 04:39:15;;;;;;;4.68;2.08;;;;;;;16.94;46.10;101597.75;4985806;28;20038;-78
2022/07/03 04:41:41;;;;;;;3.03;1.77;;;;;;;16.97;46.05;101605.50;4981063;28;20489;-79
2022/07/03 04:44:06;;;;;;;2.40;1.35;;;;;;;17.08;45.86;101599.63;4995294;28;20045;-79
2022/07/03 04:46:32;;;;;;;2.33;1.48;;;;;;;16.98;45.89;101590.53;5012470;28;20095;-77
2022/07/03 04:48:57;;;;;;;2.05;1.70;;;;;;;16.91;45.96;101599.69;4994050;28;20038;-78
2022/07/03 04:51:23;;;;;;;5.18;1.58;;;;;;;16.97;46.08;101594.09;4997911;28;20414;-78
2022/07/03 04:53:48;;;;;;;2.53;1.80;;;;;;;16.88;45.86;101599.88;4957731;28;20042;-78
2022/07/03 04:56:14;;;;;;;3.83;1.75;;;;;;;16.78;46.57;101589.84;4997780;28;20029;-78
2022/07/03 04:58:40;;;;;;;1.60;1.50;;;;;;;16.87;46.48;101592.88;4983054;28;20579;-77
2022/07/03 05:01:05;;;;;;;3.38;1.70;;;;;;;17.03;46.16;101593.75;4997018;28;20042;-79
2022/07/03 05:03:31;;;;;;;1.95;1.45;;;;;;;17.08;46.51;101594.34;4997733;28;20512;-79
2022/07/03 05:05:58;;;;;;;1.75;1.48;;;;;;;17.14;46.20;101595.78;4999531;28;20041;-78
2022/07/03 05:08:23;;;;;;;1.58;1.48;;;;;;;17.19;46.19;101597.22;4996243;28;20194;-80
2022/07/03 05:10:49;;;;;;;3.80;1.60;;;;;;;17.31;45.67;101600.09;4998546;28;20093;-78
2022/07/03 05:13:15;;;;;;;4.45;2.40;;;;;;;17.48;44.91;101600.03;4992048;28;20574;-79
2022/07/03 05:15:41;;;;;;;2.10;1.55;;;;;;;17.40;45.82;101604.84;4996635;28;20030;-76
2022/07/03 05:18:06;;;;;;;2.60;2.00;;;;;;;17.45;45.88;101600.19;4997244;28;20034;-77
2022/07/03 05:20:33;;;;;;;4.13;2.05;;;;;;;17.35;45.85;101604.28;4998220;28;20058;-78
2022/07/03 05:23:01;;;;;;;2.20;2.00;;;;;;;17.27;46.08;101596.81;4974675;28;20083;-78
2022/07/03 05:25:28;;;;;;;4.28;2.15;;;;;;;17.23;45.96;101601.41;4996571;28;20030;-77
2022/07/03 05:27:54;;;;;;;2.03;1.50;;;;;;;17.43;46.26;101597.63;4979825;28;20488;-78
2022/07/03 05:30:22;;;;;;;2.15;1.92;;;;;;;17.59;45.71;101597.59;4983327;28;20117;-79
2022/07/03 05:32:48;;;;;;;4.03;1.92;;;;;;;17.79;44.88;101601.72;4997222;28;20041;-78
2022/07/03 05:35:14;;;;;;;2.92;2.05;;;;;;;17.86;44.77;101604.84;4995380;28;20030;-77
2022/07/03 05:37:39;;;;;;;5.53;2.00;;;;;;;17.95;44.55;101609.59;4998099;28;20160;-78
2022/07/03 05:40:06;;;;;;;3.00;2.10;;;;;;;17.89;44.02;101603.81;4996419;28;20036;-75
2022/07/03 05:42:32;;;;;;;2.03;1.83;;;;;;;17.96;44.33;101613.94;4996957;28;20042;-78
2022/07/03 05:44:58;;;;;;;5.25;2.53;;;;;;;18.08;44.09;101616.81;4997158;28;20026;-77
2022/07/03 05:47:24;;;;;;;2.78;2.00;;;;;;;18.36;43.06;101614.19;4997650;28;20052;-79
2022/07/03 05:49:50;;;;;;;1.90;1.70;;;;;;;18.59;43.62;101614.59;4982805;28;20913;-78
2022/07/03 05:52:16;;;;;;;2.15;1.90;;;;;;;19.09;42.62;101607.88;4976329;28;20048;-77
2022/07/03 05:54:42;;;;;;;3.38;1.00;;;;;;;20.35;40.68;101612.75;4998485;28;20137;-80
2022/07/03 05:57:08;;;;;;;4.75;1.90;;;;;;;20.82;37.97;101611.16;4996609;28;21146;-77
2022/07/03 05:59:34;;;;;;;2.47;2.28;;;;;;;21.61;35.25;101611.59;4983422;28;20040;-76
2022/07/03 06:01:59;;;;;;;1.88;1.50;;;;;;;22.98;33.30;101615.06;4995881;28;20127;-80
2022/07/03 06:04:24;;;;;;;1.70;1.60;;;;;;;24.21;31.90;101610.16;4998202;28;20404;-76
2022/07/03 06:06:50;;;;;;;2.30;0.95;;;;;;;24.09;30.73;101610.38;4994519;28;20145;-78
2022/07/03 06:09:16;;;;;;;3.78;1.35;;;;;;;22.85;32.79;101619.75;4983228;28;20037;-76
2022/07/03 06:11:42;;;;;;;1.98;1.08;;;;;;;21.92;33.53;101620.75;4999321;28;20034;-80
2022/07/03 06:14:08;;;;;;;3.83;1.58;;;;;;;21.35;34.73;101624.16;4996014;28;20030;-79
2022/07/03 06:16:34;;;;;;;5.90;2.20;;;;;;;20.56;35.53;101615.69;4983852;28;20036;-80
2022/07/03 06:18:59;;;;;;;2.55;2.05;;;;;;;20.27;37.62;101628.34;4993892;28;20041;-78
2022/07/03 06:21:25;;;;;;;2.63;1.90;;;;;;;20.25;36.31;101625.78;4997221;28;20098;-79
2022/07/03 06:23:50;;;;;;;3.35;1.90;;;;;;;21.24;35.81;101626.75;4994535;28;20100;-78
2022/07/03 06:26:16;;;;;;;2.10;1.80;;;;;;;23.82;30.43;101633.91;5005867;28;20292;-79
2022/07/03 06:28:45;;;;;;;1.55;1.20;;;;;;;25.12;28.82;101636.91;4984024;28;20066;-78
2022/07/03 06:31:11;;;;;;;1.65;1.02;;;;;;;27.14;26.58;101628.63;5003254;28;20689;-78
2022/07/03 06:33:36;;;;;;;1.23;0.77;;;;;;;29.23;23.45;101628.50;5016533;28;20057;-78
2022/07/03 06:36:02;;;;;;;2.55;0.80;;;;;;;28.70;23.89;101630.53;4997224;28;20030;-79
2022/07/03 06:38:28;;;;;;;2.67;0.57;;;;;;;29.71;23.24;101624.13;5010787;28;20099;-77
2022/07/03 06:40:53;;;;;;;1.92;0.80;;;;;;;30.68;22.39;101624.84;4987727;28;20046;-77
2022/07/03 06:43:19;;;;;;;1.25;0.80;;;;;;;31.93;20.45;101621.00;5005175;28;20474;-78
2022/07/03 06:45:44;;;;;;;3.90;0.93;;;;;;;32.57;19.07;101612.31;5000789;28;20710;-80
2022/07/03 06:48:10;;;;;;;1.65;0.75;;;;;;;32.59;18.96;101610.28;4983059;28;20491;-77
2022/07/03 06:50:35;;;;;;;4.07;0.65;;;;;;;33.37;18.03;101610.44;5000671;28;20088;-77
2022/07/03 06:53:01;;;;;;;3.03;0.45;;;;;;;32.61;18.80;101613.59;5007010;28;20048;-80
2022/07/03 06:55:26;;;;;;;2.08;0.68;;;;;;;33.69;17.91;101608.19;5004199;28;20033;-78
2022/07/03 06:57:52;;;;;;;3.55;0.80;;;;;;;32.79;18.63;101608.59;5009878;28;20050;-79
2022/07/03 07:00:18;;;;;;;2.63;0.60;;;;;;;30.52;21.34;101616.81;5002896;28;20037;-78
2022/07/03 07:02:43;;;;;;;1.23;0.60;;;;;;;30.35;21.23;101611.47;5011325;28;20607;-80
2022/07/03 07:05:12;;;;;;;1.85;1.00;;;;;;;30.72;20.26;101618.06;5002437;28;20038;-79
2022/07/03 07:07:37;;;;;;;2.95;0.93;;;;;;;29.86;21.20;101616.16;4992331;28;20108;-79
2022/07/03 07:10:03;;;;;;;3.88;1.27;;;;;;;30.16;20.63;101618.16;5002167;28;20034;-79
2022/07/03 07:12:29;;;;;;;1.27;0.70;;;;;;;31.60;19.80;101616.75;5005024;28;20044;-79
2022/07/03 07:14:54;;;;;;;4.50;1.13;;;;;;;31.57;19.31;101614.44;4988749;28;20042;-78
2022/07/03 07:17:19;;;;;;;2.47;0.93;;;;;;;30.74;19.62;101631.41;5002367;28;20373;-79
2022/07/03 07:19:45;;;;;;;3.17;0.70;;;;;;;30.41;20.59;101623.44;5003023;28;20018;-79
2022/07/03 07:22:10;;;;;;;2.05;1.00;;;;;;;30.35;20.29;101633.06;5003457;28;20091;-77
2022/07/03 07:24:36;;;;;;;2.75;0.80;;;;;;;30.49;20.27;101627.94;5001321;28;20489;-77
2022/07/03 07:27:01;;;;;;;5.85;0.88;;;;;;;31.69;18.28;101638.31;5014818;28;20057;-80
2022/07/03 07:29:27;;;;;;;0.85;0.50;;;;;;;31.49;20.01;101644.22;5007610;28;20040;-78
2022/07/03 07:31:53;;;;;;;2.30;1.00;;;;;;;32.69;17.68;101648.66;4988998;28;20064;-77
2022/07/03 07:34:18;;;;;;;1.95;0.82;;;;;;;30.28;20.53;101642.88;5004787;28;20468;-77
2022/07/03 07:36:44;;;;;;;2.50;0.80;;;;;;;32.19;18.76;101648.44;5003086;28;20029;-78
2022/07/03 07:39:09;;;;;;;3.83;0.70;;;;;;;31.47;19.21;101648.09;4987199;28;21407;-78
2022/07/03 07:41:36;;;;;;;2.65;0.50;;;;;;;33.11;17.84;101647.06;4979764;28;20471;-77
2022/07/03 07:44:01;;;;;;;1.90;0.60;;;;;;;33.53;16.78;101653.50;4987880;28;20088;-78
2022/07/03 07:46:27;;;;;;;2.25;0.45;;;;;;;32.98;17.14;101653.19;4999542;28;20033;-78
2022/07/03 07:48:52;;;;;;;1.10;0.40;;;;;;;33.78;17.11;101647.66;4978380;28;20068;-77
2022/07/03 07:51:18;;;;;;;0.77;0.20;;;;;;;33.18;17.08;101656.06;4999178;28;20060;-78
2022/07/03 07:53:44;;;;;;;2.45;0.70;;;;;;;33.27;16.64;101645.16;4993925;28;20432;-79
2022/07/03 07:56:10;;;;;;;1.15;0.70;;;;;;;32.17;17.09;101650.50;4996786;28;20581;-78
2022/07/03 07:58:35;;;;;;;1.95;0.30;;;;;;;32.30;18.61;101640.84;4996348;28;20035;-76
2022/07/03 08:06:29;;;;;;;0.50;0.20;;;;;;;34.45;16.02;101654.31;5015134;28;20038;-79
2022/07/03 08:08:54;;;;;;;4.15;1.27;;;;;;;29.74;19.25;101650.72;4996570;28;20141;-80
2022/07/03 08:11:20;;;;;;;2.03;0.40;;;;;;;28.34;21.29;101655.78;4995742;28;20037;-78
2022/07/03 08:13:45;;;;;;;1.60;0.40;;;;;;;28.52;21.59;101654.81;4969110;28;20057;-79
2022/07/03 08:16:13;;;;;;;1.45;0.43;;;;;;;28.50;21.97;101652.31;4994840;28;20030;-78
2022/07/03 08:18:38;;;;;;;1.08;0.20;;;;;;;27.13;23.12;101657.28;4994299;28;20069;-79
2022/07/03 08:21:04;;;;;;;1.95;0.63;;;;;;;27.24;23.19;101654.38;4999520;28;20586;-77
2022/07/03 08:23:30;;;;;;;1.75;0.40;;;;;;;27.48;23.23;101659.13;4995340;28;20139;-76
2022/07/03 08:25:56;;;;;;;4.28;0.35;;;;;;;26.43;24.36;101659.63;4996716;28;20049;-78
2022/07/03 08:28:22;;;;;;;2.85;0.30;;;;;;;27.67;22.29;101654.63;4983886;28;20061;-81
2022/07/03 08:30:48;;;;;;;2.55;0.30;;;;;;;29.08;22.06;101655.16;5011512;28;20971;-79
2022/07/03 08:33:14;;;;;;;4.75;0.35;;;;;;;28.43;21.46;101650.41;4994709;28;20088;-79
2022/07/03 08:35:39;;;;;;;2.30;0.50;;;;;;;28.00;22.36;101654.84;4997013;28;20038;-80
2022/07/03 08:38:05;;;;;;;1.15;0.40;;;;;;;28.72;21.88;101655.41;4996629;28;20041;-77
2022/07/03 08:40:31;;;;;;;0.75;0.40;;;;;;;29.01;22.10;101648.78;4997528;28;20064;-79
2022/07/03 08:43:00;;;;;;;0.60;0.20;;;;;;;30.05;20.04;101647.31;4996081;28;20045;-77
2022/07/03 08:45:26;;;;;;;0.50;0.20;;;;;;;29.73;20.50;101655.28;4997477;28;20099;-77
2022/07/03 08:47:57;;;;;;;2.25;0.20;;;;;;;27.82;22.40;101652.22;5009363;28;20050;-77
2022/07/03 08:50:23;;;;;;;1.65;0.40;;;;;;;28.45;21.65;101653.78;4981592;28;20622;-79
2022/07/03 08:52:49;;;;;;;0.90;0.38;;;;;;;30.12;21.22;101653.72;4994557;28;20137;-79
2022/07/03 08:55:16;;;;;;;2.42;0.20;;;;;;;31.02;19.71;101655.19;4990923;28;20030;-78
2022/07/03 08:57:43;;;;;;;2.40;0.17;;;;;;;31.71;19.57;101660.56;4992418;28;20042;-76
2022/07/03 09:00:11;;;;;;;0.60;0.20;;;;;;;32.39;18.37;101648.72;4993266;28;20124;-79
2022/07/03 09:02:41;;;;;;;0.40;0.20;;;;;;;33.62;17.55;101648.78;4993321;28;20128;-78
2022/07/03 09:05:08;;;;;;;1.40;0.25;;;;;;;32.34;17.87;101648.44;4978226;28;20033;-76
2022/07/03 09:07:39;;;;;;;0.73;0.20;;;;;;;31.66;18.59;101654.91;4992816;28;20042;-77
2022/07/03 09:10:07;;;;;;;1.00;0.20;;;;;;;32.67;17.16;101641.78;4992346;28;20041;-77
2022/07/03 09:12:33;;;;;;;0.77;0.20;;;;;;;33.60;16.46;101640.00;4991384;28;20053;-79
2022/07/03 09:14:59;;;;;;;0.73;0.17;;;;;;;34.72;16.52;101649.84;4992965;28;20688;-79
2022/07/03 09:17:27;;;;;;;2.15;0.20;;;;;;;33.48;18.02;101639.69;4991149;28;20041;-77
2022/07/03 09:19:52;;;;;;;1.13;0.60;;;;;;;34.64;16.63;101650.00;4993862;28;20330;-78
2022/07/03 09:22:24;;;;;;;0.80;0.20;;;;;;;34.49;16.33;101645.56;4974769;28;20042;-78
2022/07/03 09:25:02;;;;;;;0.85;0.22;;;;;;;34.51;16.43;101647.22;5005735;28;20038;-76
2022/07/03 09:27:28;;;;;;;2.65;0.30;;;;;;;33.53;17.26;101645.38;5004656;28;20104;-77
2022/07/03 09:30:05;;;;;;;2.03;0.10;;;;;;;34.45;15.80;101638.03;4983201;28;20489;-76
2022/07/03 09:32:42;;;;;;;0.60;0.20;;;;;;;33.79;17.73;101638.50;4996448;28;20042;-78
2022/07/03 09:35:19;;;;;;;0.45;0.10;;;;;;;32.90;17.83;101633.50;4995448;28;20490;-79
2022/07/03 09:37:49;;;;;;;0.77;0.15;;;;;;;32.43;18.69;101647.34;5009595;28;20048;-79
2022/07/03 09:40:14;;;;;;;2.00;0.20;;;;;;;32.34;18.71;101650.28;4981008;28;20075;-78
2022/07/03 09:42:40;;;;;;;1.58;0.20;;;;;;;31.48;19.64;101645.25;4993814;28;20128;-78
2022/07/03 09:45:06;;;;;;;0.50;0.20;;;;;;;32.29;18.24;101641.91;4993343;28;20041;-77
2022/07/03 09:47:31;;;;;;;1.95;0.20;;;;;;;32.83;17.25;101633.44;4957236;28;20079;-78
2022/07/03 09:50:05;;;;;;;0.63;0.20;;;;;;;31.80;18.33;101648.66;4993758;28;20065;-77
2022/07/03 09:52:38;;;;;;;2.15;0.65;;;;;;;31.19;19.15;101641.41;5010971;28;20139;-76
2022/07/03 09:55:09;;;;;;;1.63;0.30;;;;;;;31.30;20.02;101642.00;4981727;28;20046;-77
2022/07/03 09:57:50;;;;;;;3.10;0.20;;;;;;;31.48;19.68;101641.72;4981596;28;20669;-75
2022/07/03 10:00:35;;;;;;;1.42;0.10;;;;;;;29.35;21.49;101646.00;4994083;28;20026;-77
2022/07/03 10:03:09;;;;;;;0.73;0.20;;;;;;;28.10;22.47;101644.84;4988459;28;20272;-77
2022/07/03 10:05:43;;;;;;;1.25;0.30;;;;;;;26.75;23.50;101653.84;4978649;28;20048;-78
2022/07/03 10:08:11;;;;;;;1.40;0.30;;;;;;;27.41;24.56;101660.75;4993818;28;20038;-77
2022/07/03 10:10:39;;;;;;;1.85;0.20;;;;;;;28.52;22.31;101655.69;5011165;28;20583;-76
2022/07/03 10:13:05;;;;;;;0.50;0.10;;;;;;;28.67;21.61;101653.22;5006586;28;20735;-77
2022/07/03 10:15:32;;;;;;;0.65;0.10;;;;;;;29.36;20.77;101653.06;5010296;28;20881;-77
2022/07/03 10:17:59;;;;;;;3.35;0.55;;;;;;;29.83;21.05;101654.25;4994177;28;20049;-77
2022/07/03 10:20:49;;;;;;;3.15;0.20;;;;;;;28.89;20.61;101645.56;4994273;28;20037;-79
2022/07/03 10:23:16;;;;;;;2.53;0.10;;;;;;;28.49;22.18;101647.91;5001065;28;20057;-76
2022/07/03 10:25:44;;;;;;;0.95;0.10;;;;;;;28.50;21.11;101652.31;4994828;28;20161;-79
2022/07/03 10:28:14;;;;;;;1.52;0.10;;;;;;;29.10;21.79;101664.78;4996200;28;20192;-80
2022/07/03 10:30:43;;;;;;;1.55;0.10;;;;;;;29.33;20.89;101658.78;4995786;28;20820;-77
2022/07/03 10:33:09;;;;;;;1.85;0.10;;;;;;;27.47;23.36;101664.66;4987220;28;20065;-78
2022/07/03 10:35:37;;;;;;;0.10;0.10;;;;;;;27.86;23.58;101662.50;4996537;28;20152;-79
2022/07/03 10:38:02;;;;;;;3.53;0.25;;;;;;;28.01;23.00;101661.91;5007314;28;20037;-77
2022/07/03 10:46:25;;;;;;;0.60;0.10;;;;;;;29.31;22.23;101660.81;5012915;28;20034;-76
2022/07/03 10:48:50;;;;;;;0.93;0.20;;;;;;;29.83;22.03;101665.03;4993667;28;20046;-77
2022/07/03 10:51:16;;;;;;;0.98;0.30;;;;;;;28.95;21.62;101651.13;4995250;28;20399;-78
2022/07/03 10:53:42;;;;;;;0.82;0.10;;;;;;;27.96;23.00;101662.38;4977287;28;20496;-76
2022/07/03 10:56:07;;;;;;;1.10;0.20;;;;;;;28.23;23.41;101661.38;4995998;28;20038;-77
2022/07/03 10:58:55;;;;;;;0.60;0.10;;;;;;;26.87;24.20;101665.19;4996115;28;20038;-79
2022/07/03 11:01:28;;;;;;;3.67;0.50;;;;;;;27.05;25.38;101662.53;4989945;28;20057;-76
2022/07/03 11:04:00;;;;;;;0.57;0.10;;;;;;;26.35;27.51;101670.22;4989923;28;20058;-78
2022/07/03 11:06:44;;;;;;;2.35;0.38;;;;;;;24.74;29.87;101665.22;4995486;28;20167;-76
2022/07/03 11:09:11;;;;;;;1.85;0.20;;;;;;;24.74;30.44;101664.38;4994092;28;20137;-77
2022/07/03 11:11:57;;;;;;;3.42;0.52;;;;;;;23.83;31.11;101664.13;4991084;28;20458;-77
2022/07/03 11:14:32;;;;;;;2.08;0.22;;;;;;;23.28;31.67;101669.59;4976729;28;20765;-77
2022/07/03 11:17:17;;;;;;;3.05;0.30;;;;;;;25.00;29.14;101664.78;4990481;28;20051;-79
2022/07/03 11:19:43;;;;;;;3.50;0.90;;;;;;;26.40;28.50;101665.25;4978892;28;20080;-77
2022/07/03 11:22:23;;;;;;;2.65;0.75;;;;;;;26.37;27.25;101668.25;4987830;28;20659;-76
2022/07/03 11:24:52;;;;;;;0.63;0.20;;;;;;;25.50;27.35;101662.00;4979268;28;20096;-76
2022/07/03 11:27:24;;;;;;;1.50;0.20;;;;;;;26.65;26.64;101664.63;4972443;28;20042;-79
2022/07/03 11:30:00;;;;;;;3.22;0.45;;;;;;;26.64;25.43;101668.28;4992577;28;20049;-78
2022/07/03 11:32:46;;;;;;;1.10;0.20;;;;;;;25.65;26.59;101665.13;5006221;28;20042;-76
2022/07/03 11:35:51;;;;;;;2.05;0.38;;;;;;;25.15;27.52;101667.88;4993948;28;20145;-75
2022/07/03 11:38:23;;;;;;;2.17;0.52;;;;;;;26.13;27.85;101666.06;4981548;28;20045;-78
2022/07/03 11:40:51;;;;;;;2.95;0.20;;;;;;;25.90;25.95;101662.84;4977066;28;20037;-76
2022/07/03 11:43:20;;;;;;;;;;;;;;;26.75;27.11;101659.19;4987955;28;20547;-75
2022/07/03 11:45:49;;;;;;;0.52;0.20;;;;;;;26.59;25.93;101654.47;4990595;28;19921;-77
2022/07/03 11:48:18;;;;;;;0.60;0.10;;;;;;;26.76;26.13;101655.53;5007068;28;20426;-78
2022/07/03 11:50:46;;;;;;;0.95;0.40;;;;;;;26.33;26.01;101653.44;4992932;28;20833;-77